createdAt,value
2023-01-05T00:00:23.693Z,98182.28
2023-01-05T00:03:26.300Z,98180.47
2023-01-05T00:06:29.013Z,98173.16
2023-01-05T00:09:31.658Z,98157.63
2023-01-05T00:12:52.870Z,98173.03
2023-01-05T00:16:14.256Z,98167.34
2023-01-05T00:19:35.840Z,98146.84
2023-01-05T00:22:46.902Z,98168.41
2023-01-05T00:25:49.418Z,98142.00
2023-01-05T00:28:52.151Z,98154.16
2023-01-05T00:31:54.765Z,98155.34
2023-01-05T00:34:58.693Z,98144.94
2023-01-05T00:38:01.286Z,98154.81
2023-01-05T00:41:03.755Z,98133.41
2023-01-05T00:44:06.255Z,98122.69
2023-01-05T00:47:08.912Z,98113.53
2023-01-05T00:50:14.931Z,98102.88
2023-01-05T00:53:17.729Z,98098.72
2023-01-05T00:56:20.264Z,98101.41
2023-01-05T00:59:22.884Z,98105.44
2023-01-05T01:02:25.473Z,98112.28
2023-01-05T01:05:28.113Z,98085.28
2023-01-05T01:08:32.721Z,98102.09
2023-01-05T01:11:35.599Z,98085.75
2023-01-05T01:14:39.292Z,98104.47
2023-01-05T01:17:41.846Z,98096.13
2023-01-05T01:20:44.409Z,98079.03
2023-01-05T01:23:46.970Z,98108.91
2023-01-05T01:26:49.703Z,98095.06
2023-01-05T01:29:52.410Z,98096.03
2023-01-05T01:32:55.450Z,98112.97
2023-01-05T01:35:58.579Z,98100.03
2023-01-05T01:39:01.264Z,98088.22
2023-01-05T01:42:14.752Z,98071.16
2023-01-05T01:45:24.135Z,98080.88
2023-01-05T01:48:27.007Z,98065.94
2023-01-05T01:51:48.066Z,98047.81
2023-01-05T01:54:51.675Z,98056.00
2023-01-05T01:57:54.448Z,98042.38
2023-01-05T02:00:57.854Z,98031.13
2023-01-05T02:04:02.274Z,98019.88
2023-01-05T02:07:06.105Z,98029.47
2023-01-05T02:10:09.834Z,98011.13
2023-01-05T02:13:35.410Z,98009.63
2023-01-05T02:16:55.021Z,97997.06
2023-01-05T02:20:25.757Z,97992.53
2023-01-05T02:23:47.142Z,98003.41
2023-01-05T02:27:17.854Z,97997.28
2023-01-05T02:30:54.367Z,97958.69
2023-01-05T02:34:12.409Z,97972.06
2023-01-05T02:37:41.649Z,97997.75
2023-01-05T02:40:47.585Z,97987.47
2023-01-05T02:43:50.600Z,97975.25
2023-01-05T02:47:19.653Z,97967.31
2023-01-05T02:50:34.629Z,97976.38
2023-01-05T02:53:41.418Z,97963.34
2023-01-05T02:56:52.115Z,97953.63
2023-01-05T02:59:54.824Z,97939.94
2023-01-05T03:03:04.680Z,97952.66
2023-01-05T03:06:30.563Z,97939.94
2023-01-05T03:09:39.404Z,97935.03
2023-01-05T03:13:04.741Z,97934.41
2023-01-05T03:16:09.531Z,97910.31
2023-01-05T03:19:32.238Z,97905.97
2023-01-05T03:22:54.777Z,97913.53
2023-01-05T03:26:17.299Z,97906.28
2023-01-05T03:29:39.029Z,97905.19
2023-01-05T03:33:11.916Z,97904.25
2023-01-05T03:36:18.878Z,97904.47
2023-01-05T03:39:26.687Z,97885.44
2023-01-05T03:42:31.321Z,97899.50
2023-01-05T03:45:41.004Z,97907.47
2023-01-05T03:48:46.045Z,97894.66
2023-01-05T03:51:48.639Z,97887.09
2023-01-05T03:54:51.869Z,97882.72
2023-01-05T03:57:55.264Z,97886.53
2023-01-05T04:00:57.870Z,97879.41
2023-01-05T04:04:01.134Z,97863.56
2023-01-05T04:07:04.099Z,97857.66
2023-01-05T04:10:10.794Z,97876.63
2023-01-05T04:13:13.495Z,97861.22
2023-01-05T04:16:18.904Z,97854.34
2023-01-05T04:19:21.843Z,97855.44
2023-01-05T04:22:27.815Z,97848.84
2023-01-05T04:25:31.286Z,97853.22
2023-01-05T04:28:46.192Z,97830.25
2023-01-05T04:31:48.780Z,97827.22
2023-01-05T04:34:51.467Z,97835.31
2023-01-05T04:37:56.542Z,97830.94
2023-01-05T04:40:59.585Z,97819.38
2023-01-05T04:44:02.515Z,97824.59
2023-01-05T04:47:05.086Z,97831.22
2023-01-05T04:50:10.248Z,97824.84
2023-01-05T04:53:13.627Z,97841.41
2023-01-05T04:56:18.403Z,97842.22
2023-01-05T04:59:21.868Z,97828.06
2023-01-05T05:02:27.540Z,97839.47
2023-01-05T05:05:30.160Z,97818.25
2023-01-05T05:08:33.061Z,97784.63
2023-01-05T05:11:37.304Z,97813.16
2023-01-05T05:14:39.896Z,97800.38
2023-01-05T05:17:43.196Z,97816.88
2023-01-05T05:20:50.895Z,97818.75
2023-01-05T05:23:53.659Z,97793.44
2023-01-05T05:26:57.587Z,97795.38
2023-01-05T05:30:00.114Z,97782.16
2023-01-05T05:33:02.620Z,97780.78
2023-01-05T05:36:06.280Z,97789.09
2023-01-05T05:39:08.780Z,97779.97
2023-01-05T05:42:11.315Z,97799.25
2023-01-05T05:45:13.833Z,97799.53
2023-01-05T05:48:16.372Z,97787.41
2023-01-05T05:51:20.067Z,97784.94
2023-01-05T05:54:22.861Z,97781.06
2023-01-05T05:57:25.688Z,97776.66
2023-01-05T06:00:28.426Z,97768.38
2023-01-05T06:03:31.046Z,97764.25
2023-01-05T06:06:33.688Z,97770.00
2023-01-05T06:09:36.179Z,97761.75
2023-01-05T06:12:38.792Z,97762.53
2023-01-05T06:15:42.431Z,97767.47
2023-01-05T06:18:44.970Z,97752.16
2023-01-05T06:21:47.466Z,97750.66
2023-01-05T06:24:50.052Z,97740.31
2023-01-05T06:27:52.685Z,97742.53
2023-01-05T06:30:55.272Z,97740.91
2023-01-05T06:33:57.786Z,97736.66
2023-01-05T06:37:02.535Z,97744.03
2023-01-05T06:40:05.981Z,97745.97
2023-01-05T06:43:08.515Z,97749.84
2023-01-05T06:46:11.240Z,97746.94
2023-01-05T06:49:14.998Z,97760.59
2023-01-05T06:52:17.675Z,97761.16
2023-01-05T06:55:22.061Z,97765.16
2023-01-05T06:58:30.184Z,97785.66
2023-01-05T07:01:32.946Z,97782.50
2023-01-05T07:04:35.690Z,97774.09
2023-01-05T07:07:38.310Z,97794.78
2023-01-05T07:10:41.288Z,97813.09
2023-01-05T07:13:48.204Z,97812.56
2023-01-05T07:16:50.992Z,97834.16
2023-01-05T07:19:53.561Z,97831.47
2023-01-05T07:22:56.135Z,97823.19
2023-01-05T07:26:01.868Z,97827.63
2023-01-05T07:29:04.776Z,97826.81
2023-01-05T07:32:07.703Z,97817.72
2023-01-05T07:35:10.341Z,97807.41
2023-01-05T07:38:13.009Z,97814.56
2023-01-05T07:41:16.074Z,97807.53
2023-01-05T07:44:18.693Z,97798.59
2023-01-05T07:47:21.269Z,97796.81
2023-01-05T07:50:23.925Z,97797.31
2023-01-05T07:53:26.488Z,97800.41
2023-01-05T07:56:29.041Z,97787.84
2023-01-05T07:59:31.611Z,97804.78
2023-01-05T08:02:36.302Z,97800.41
2023-01-05T08:05:39.081Z,97790.75
2023-01-05T08:08:41.969Z,97767.63
2023-01-05T08:11:44.705Z,97755.19
2023-01-05T08:14:49.635Z,97748.06
2023-01-05T08:17:52.161Z,97767.56
2023-01-05T08:20:56.746Z,97756.13
2023-01-05T08:24:00.045Z,97752.75
2023-01-05T08:27:02.938Z,97772.69
2023-01-05T08:30:06.220Z,97776.69
2023-01-05T08:33:09.157Z,97776.00
2023-01-05T08:36:14.381Z,97788.78
2023-01-05T08:39:16.941Z,97796.22
2023-01-05T08:42:19.499Z,97792.06
2023-01-05T08:45:22.123Z,97806.94
2023-01-05T08:48:24.890Z,97798.34
2023-01-05T08:51:28.353Z,97780.63
2023-01-05T08:54:31.248Z,97772.84
2023-01-05T08:57:34.526Z,97777.75
2023-01-05T09:00:39.787Z,97790.38
2023-01-05T09:03:42.634Z,97778.75
2023-01-05T09:06:45.351Z,97795.03
2023-01-05T09:09:48.128Z,97793.06
2023-01-05T09:12:50.843Z,97793.06
2023-01-05T09:15:53.598Z,97791.78
2023-01-05T09:18:57.889Z,97785.59
2023-01-05T09:22:00.613Z,97791.56
2023-01-05T09:25:03.935Z,97778.44
2023-01-05T09:28:06.644Z,97778.75
2023-01-05T09:31:17.515Z,97781.13
2023-01-05T09:34:20.195Z,97788.69
2023-01-05T09:37:22.719Z,97780.75
2023-01-05T09:40:25.628Z,97789.69
2023-01-05T09:43:33.983Z,97781.53
2023-01-05T09:46:43.551Z,97784.28
2023-01-05T09:49:48.243Z,97797.53
2023-01-05T09:52:53.020Z,97790.06
2023-01-05T09:55:56.041Z,97792.59
2023-01-05T09:59:35.278Z,97778.91
2023-01-05T10:02:37.873Z,97788.34
2023-01-05T10:05:42.790Z,97797.25
2023-01-05T10:08:49.102Z,97801.03
2023-01-05T10:12:29.592Z,97802.53
2023-01-05T10:15:44.362Z,97788.47
2023-01-05T10:18:47.245Z,97787.34
2023-01-05T10:22:24.956Z,97787.88
2023-01-05T10:25:46.373Z,97775.22
2023-01-05T10:28:52.000Z,97794.69
2023-01-05T10:32:10.051Z,97777.41
2023-01-05T10:39:06.211Z,97776.69
2023-01-05T10:42:16.418Z,97781.81
2023-01-05T10:45:20.740Z,97787.53
2023-01-05T10:48:28.424Z,97784.28
2023-01-05T10:51:34.216Z,97776.16
2023-01-05T10:54:40.006Z,97795.78
2023-01-05T10:57:43.302Z,97780.72
2023-01-05T11:00:46.216Z,97765.72
2023-01-05T11:07:12.432Z,97739.00
2023-01-05T11:10:36.224Z,97751.66
2023-01-05T11:13:46.970Z,97762.00
2023-01-05T11:16:51.924Z,97786.34
2023-01-05T11:19:56.657Z,97774.81
2023-01-05T11:22:59.411Z,97765.44
2023-01-05T11:26:30.961Z,97768.81
2023-01-05T11:29:33.691Z,97782.66
2023-01-05T11:32:36.366Z,97785.91
2023-01-05T11:35:39.354Z,97793.06
2023-01-05T11:38:42.146Z,97803.03
2023-01-05T11:41:44.756Z,97800.94
2023-01-05T11:44:58.460Z,97797.34
2023-01-05T11:48:09.461Z,97795.53
2023-01-05T11:51:41.174Z,97794.28
2023-01-05T11:54:44.821Z,97787.69
2023-01-05T11:57:52.704Z,97785.44
2023-01-05T12:01:20.560Z,97781.56
2023-01-05T12:04:35.608Z,97782.59
2023-01-05T12:07:43.204Z,97782.91
2023-01-05T12:11:03.273Z,97787.63
2023-01-05T12:14:27.820Z,97785.44
2023-01-05T12:17:34.695Z,97788.31
2023-01-05T12:20:37.325Z,97786.59
2023-01-05T12:23:52.252Z,97789.03
2023-01-05T12:27:10.130Z,97785.44
2023-01-05T12:34:13.353Z,97795.63
2023-01-05T12:37:28.623Z,97779.16
2023-01-05T12:41:24.172Z,97790.72
2023-01-05T12:44:48.439Z,97791.34
2023-01-05T12:48:10.701Z,97796.56
2023-01-05T12:51:24.901Z,97794.16
2023-01-05T12:54:47.757Z,97790.28
2023-01-05T12:57:59.077Z,97800.94
2023-01-05T13:01:03.502Z,97807.31
2023-01-05T13:04:26.992Z,97807.00
2023-01-05T13:07:36.189Z,97806.75
2023-01-05T13:10:45.815Z,97804.31
2023-01-05T13:14:00.200Z,97804.97
2023-01-05T13:17:31.203Z,97799.19
2023-01-05T13:20:41.365Z,97807.16
2023-01-05T13:23:48.135Z,97800.88
2023-01-05T13:26:50.812Z,97817.72
2023-01-05T13:29:59.520Z,97816.00
2023-01-05T13:33:20.681Z,97811.75
2023-01-05T13:36:58.210Z,97822.75
2023-01-05T13:40:11.303Z,97818.63
2023-01-05T13:43:20.427Z,97823.34
2023-01-05T13:47:01.061Z,97820.72
2023-01-05T13:50:41.848Z,97827.41
2023-01-05T13:53:45.953Z,97833.25
2023-01-05T13:56:50.492Z,97827.75
2023-01-05T14:00:07.299Z,97835.00
2023-01-05T14:03:27.707Z,97836.59
2023-01-05T14:06:33.451Z,97832.94
2023-01-05T14:09:48.629Z,97837.59
2023-01-05T14:12:54.401Z,97837.19
2023-01-05T14:15:57.202Z,97841.75
2023-01-05T14:19:24.199Z,97839.06
2023-01-05T14:22:37.889Z,97844.63
2023-01-05T14:25:40.374Z,97850.16
2023-01-05T14:28:45.428Z,97848.22
2023-01-05T14:31:48.605Z,97854.41
2023-01-05T14:34:54.614Z,97853.91
2023-01-05T14:38:23.649Z,97853.47
2023-01-05T14:41:28.396Z,97850.22
2023-01-05T14:44:43.051Z,97867.00
2023-01-05T14:47:47.599Z,97861.22
2023-01-05T14:51:08.659Z,97860.47
2023-01-05T14:54:11.587Z,97857.94
2023-01-05T14:57:26.657Z,97872.47
2023-01-05T15:00:29.344Z,97862.34
2023-01-05T15:03:50.223Z,97862.81
2023-01-05T15:07:18.131Z,97868.19
2023-01-05T15:10:50.238Z,97874.56
2023-01-05T15:14:29.522Z,97870.72
2023-01-05T15:17:54.017Z,97872.91
2023-01-05T15:21:11.332Z,97870.03
2023-01-05T15:24:44.871Z,97885.94
2023-01-05T15:28:13.591Z,97889.59
2023-01-05T15:31:36.331Z,97895.81
2023-01-05T15:34:44.514Z,97891.75
2023-01-05T15:37:48.971Z,97902.69
2023-01-05T15:41:08.517Z,97897.03
2023-01-05T15:44:16.688Z,97885.81
2023-01-05T15:47:20.851Z,97893.16
2023-01-05T15:50:27.934Z,97896.81
2023-01-05T15:53:33.360Z,97906.78
2023-01-05T15:56:42.076Z,97910.78
2023-01-05T15:59:48.500Z,97917.66
2023-01-05T16:02:51.486Z,97918.44
2023-01-05T16:06:24.756Z,97910.78
2023-01-05T16:09:34.384Z,97905.53
2023-01-05T16:12:37.467Z,97912.13
2023-01-05T16:15:42.208Z,97910.78
2023-01-05T16:18:52.566Z,97920.66
2023-01-05T16:22:03.833Z,97913.63
2023-01-05T16:25:24.427Z,97911.84
2023-01-05T16:28:27.383Z,97920.56
2023-01-05T16:31:34.859Z,97920.56
2023-01-05T16:34:37.806Z,97935.88
2023-01-05T16:37:40.407Z,97935.06
2023-01-05T16:40:45.802Z,97928.31
2023-01-05T16:43:59.979Z,97933.19
2023-01-05T16:47:10.565Z,97921.72
2023-01-05T16:50:22.866Z,97929.75
2023-01-05T16:53:25.849Z,97939.41
2023-01-05T16:56:32.274Z,97941.16
2023-01-05T16:59:59.500Z,97944.75
2023-01-05T17:03:04.995Z,97950.00
2023-01-05T17:06:24.671Z,97955.81
2023-01-05T17:09:28.210Z,97960.22
2023-01-05T17:12:31.209Z,97955.00
2023-01-05T17:15:36.203Z,97948.25
2023-01-05T17:18:39.367Z,97968.81
2023-01-05T17:22:01.218Z,97972.81
2023-01-05T17:25:05.423Z,97970.47
2023-01-05T17:28:10.347Z,97980.25
2023-01-05T17:34:17.478Z,97982.03
2023-01-05T17:37:20.235Z,97998.84
2023-01-05T17:40:23.546Z,97988.44
2023-01-05T17:43:26.904Z,97990.72
2023-01-05T17:46:31.631Z,97990.06
2023-01-05T17:49:34.338Z,97994.22
2023-01-05T17:52:37.008Z,97993.66
2023-01-05T17:55:39.842Z,98000.94
2023-01-05T17:58:42.673Z,98001.63
2023-01-05T18:05:09.686Z,98005.78
2023-01-05T18:08:12.544Z,97989.09
2023-01-05T18:11:17.264Z,98001.38
2023-01-05T18:14:23.861Z,98008.38
2023-01-05T18:17:27.212Z,98009.31
2023-01-05T18:20:30.410Z,98011.56
2023-01-05T18:23:33.598Z,98002.75
2023-01-05T18:26:36.487Z,98023.56
2023-01-05T18:29:41.151Z,98035.00
2023-01-05T18:32:44.765Z,98031.44
2023-01-05T18:35:50.422Z,98057.59
2023-01-05T18:38:53.449Z,98057.59
2023-01-05T18:41:57.229Z,98068.63
2023-01-05T18:45:04.971Z,98094.53
2023-01-05T18:48:17.502Z,98101.28
2023-01-05T18:51:20.441Z,98112.31
2023-01-05T18:54:23.580Z,98127.03
2023-01-05T18:57:26.630Z,98131.69
2023-01-05T19:00:30.118Z,98141.88
2023-01-05T19:03:34.372Z,98145.44
2023-01-05T19:06:38.235Z,98158.78
2023-01-05T19:09:40.894Z,98133.47
2023-01-05T19:12:43.644Z,98154.97
2023-01-05T19:15:46.373Z,98161.91
2023-01-05T19:18:51.326Z,98161.00
2023-01-05T19:21:55.394Z,98166.09
2023-01-05T19:24:59.165Z,98180.63
2023-01-05T19:28:02.585Z,98191.56
2023-01-05T19:31:07.417Z,98196.53
2023-01-05T19:34:12.967Z,98193.72
2023-01-05T19:37:16.007Z,98184.03
2023-01-05T19:40:18.730Z,98187.72
2023-01-05T19:43:21.503Z,98188.22
2023-01-05T19:46:26.031Z,98202.69
2023-01-05T19:49:28.896Z,98206.13
2023-01-05T19:52:31.659Z,98207.16
2023-01-05T19:55:39.370Z,98212.63
2023-01-05T19:58:43.175Z,98209.75
2023-01-05T20:01:46.380Z,98220.25
2023-01-05T20:04:49.361Z,98217.84
2023-01-05T20:07:52.152Z,98228.31
2023-01-05T20:10:54.743Z,98227.34
2023-01-05T20:13:57.462Z,98233.34
2023-01-05T20:17:02.495Z,98224.56
2023-01-05T20:20:05.945Z,98239.28
2023-01-05T20:23:08.629Z,98236.84
2023-01-05T20:26:16.832Z,98230.66
2023-01-05T20:29:20.976Z,98238.13
2023-01-05T20:32:25.422Z,98243.53
2023-01-05T20:35:28.253Z,98233.47
2023-01-05T20:38:32.605Z,98235.75
2023-01-05T20:41:41.475Z,98247.22
2023-01-05T20:44:46.590Z,98255.97
2023-01-05T20:47:49.170Z,98251.00
2023-01-05T20:50:51.957Z,98252.38
2023-01-05T20:53:55.808Z,98273.28
2023-01-05T20:56:58.418Z,98272.34
2023-01-05T21:00:01.393Z,98278.72
2023-01-05T21:03:04.635Z,98281.78
2023-01-05T21:06:09.685Z,98280.69
2023-01-05T21:09:12.818Z,98289.50
2023-01-05T21:12:15.986Z,98282.84
2023-01-05T21:15:18.789Z,98288.56
2023-01-05T21:18:22.110Z,98288.31
2023-01-05T21:21:26.204Z,98283.09
2023-01-05T21:24:29.109Z,98283.09
2023-01-05T21:27:31.811Z,98281.94
2023-01-05T21:30:34.407Z,98291.88
2023-01-05T21:33:37.869Z,98285.50
2023-01-05T21:36:45.216Z,98283.63
2023-01-05T21:39:48.508Z,98274.72
2023-01-05T21:42:51.683Z,98298.16
2023-01-05T21:45:54.997Z,98275.47
2023-01-05T21:48:57.814Z,98282.59
2023-01-05T21:52:19.291Z,98285.25
2023-01-05T21:55:40.453Z,98284.75
2023-01-05T21:58:43.222Z,98292.94
2023-01-05T22:01:45.890Z,98290.22
2023-01-05T22:04:49.223Z,98297.91
2023-01-05T22:07:52.063Z,98305.31
2023-01-05T22:10:56.227Z,98294.63
2023-01-05T22:13:59.034Z,98306.72
2023-01-05T22:17:01.966Z,98317.41
2023-01-05T22:20:05.082Z,98309.56
2023-01-05T22:23:07.693Z,98310.53
2023-01-05T22:26:15.819Z,98325.72
2023-01-05T22:29:19.507Z,98320.72
2023-01-05T22:32:22.572Z,98329.50
2023-01-05T22:35:26.017Z,98325.38
2023-01-05T22:38:29.412Z,98317.63
2023-01-05T22:41:32.052Z,98324.16
2023-01-05T22:44:34.899Z,98329.03
2023-01-05T22:47:37.601Z,98311.72
2023-01-05T22:50:40.328Z,98320.75
2023-01-05T22:53:44.305Z,98315.66
2023-01-05T22:56:47.020Z,98310.94
2023-01-05T22:59:49.580Z,98320.28
2023-01-05T23:02:52.366Z,98313.75
2023-01-05T23:05:55.017Z,98316.03
2023-01-05T23:08:58.519Z,98317.66
2023-01-05T23:12:01.910Z,98316.25
2023-01-05T23:15:07.836Z,98322.88
2023-01-05T23:18:10.385Z,98308.91
2023-01-05T23:21:14.637Z,98318.25
2023-01-05T23:24:17.271Z,98316.50
2023-01-05T23:27:19.962Z,98322.31
2023-01-05T23:30:22.590Z,98327.91
2023-01-05T23:33:27.445Z,98312.00
2023-01-05T23:36:30.107Z,98322.88
2023-01-05T23:39:32.671Z,98324.47
2023-01-05T23:42:44.301Z,98317.34
2023-01-05T23:45:47.505Z,98321.25
2023-01-05T23:48:51.568Z,98331.09
2023-01-05T23:51:54.127Z,98325.50
2023-01-05T23:54:56.679Z,98325.63
2023-01-05T23:57:59.319Z,98340.69
